createdAt,value
2022-11-02T00:01:04.768Z,16.31
2022-11-02T00:06:59.771Z,16.28
2022-11-02T00:09:52.044Z,16.36
2022-11-02T00:12:35.782Z,16.46
2022-11-02T00:18:06.265Z,16.50
2022-11-02T00:24:08.642Z,16.57
2022-11-02T04:03:22.838Z,14.53
2022-11-02T04:08:55.437Z,14.53
2022-11-02T04:11:52.361Z,14.56
2022-11-02T04:14:43.766Z,14.54
2022-11-02T04:20:36.691Z,14.53
2022-11-02T04:23:35.484Z,14.55
2022-11-02T04:26:04.269Z,14.56
2022-11-02T04:28:42.447Z,14.57
2022-11-02T04:31:18.398Z,14.56
2022-11-02T04:33:53.431Z,14.54
2022-11-02T04:36:38.106Z,14.50
2022-11-02T04:39:18.085Z,14.46
2022-11-02T04:41:48.897Z,14.43
2022-11-02T04:44:17.944Z,14.42
2022-11-02T04:46:46.566Z,14.39
2022-11-02T04:49:19.661Z,14.38
2022-11-02T04:51:50.048Z,14.33
2022-11-02T04:54:18.142Z,14.29
2022-11-02T04:56:48.671Z,14.27
2022-11-02T04:59:17.068Z,14.21
2022-11-02T05:01:45.551Z,14.18
2022-11-02T05:04:13.777Z,14.12
2022-11-02T05:06:41.918Z,14.05
2022-11-02T05:09:12.284Z,14.00
2022-11-02T05:11:40.392Z,13.96
2022-11-02T05:14:11.596Z,13.91
2022-11-02T05:16:39.656Z,13.90
2022-11-02T05:19:11.324Z,13.86
2022-11-02T05:21:39.440Z,13.80
2022-11-02T05:24:08.696Z,13.81
2022-11-02T05:26:38.226Z,13.80
2022-11-02T05:29:06.955Z,13.79
2022-11-02T05:31:35.147Z,13.80
2022-11-02T05:34:03.471Z,13.77
2022-11-02T05:36:31.460Z,13.80
2022-11-02T05:39:00.226Z,13.78
2022-11-02T05:41:37.654Z,13.79
2022-11-02T05:44:08.102Z,13.82
2022-11-02T05:46:36.616Z,13.79
2022-11-02T05:49:05.264Z,13.82
2022-11-02T05:51:33.908Z,13.84
2022-11-02T05:54:02.206Z,13.84
2022-11-02T05:56:32.748Z,13.81
2022-11-02T05:59:01.072Z,13.87
2022-11-02T06:01:30.761Z,13.86
2022-11-02T06:03:59.047Z,13.88
2022-11-02T06:06:27.902Z,13.89
2022-11-02T06:08:56.590Z,13.95
2022-11-02T06:11:25.168Z,13.93
2022-11-02T06:13:53.454Z,13.94
2022-11-02T06:16:23.247Z,13.96
2022-11-02T06:18:53.477Z,13.94
2022-11-02T06:21:21.725Z,13.97
2022-11-02T06:23:50.481Z,13.97
2022-11-02T06:26:18.832Z,13.95
2022-11-02T06:28:47.051Z,13.94
2022-11-02T06:31:18.449Z,13.93
2022-11-02T06:33:46.786Z,13.95
2022-11-02T06:36:16.499Z,13.93
2022-11-02T06:38:46.237Z,13.96
2022-11-02T06:41:14.893Z,13.97
2022-11-02T06:43:43.146Z,13.99
2022-11-02T06:46:12.006Z,13.99
2022-11-02T06:48:40.343Z,14.02
2022-11-02T06:51:09.097Z,14.03
2022-11-02T06:53:38.837Z,14.06
2022-11-02T06:56:31.569Z,14.08
2022-11-02T06:59:01.435Z,14.10
2022-11-02T07:01:32.317Z,14.11
2022-11-02T07:04:00.995Z,14.13
2022-11-02T07:06:32.860Z,14.16
2022-11-02T07:09:02.405Z,14.17
2022-11-02T07:11:30.634Z,14.18
2022-11-02T07:14:04.345Z,14.20
2022-11-02T07:16:48.382Z,14.26
2022-11-02T07:19:24.599Z,14.28
2022-11-02T07:22:01.170Z,14.34
2022-11-02T07:24:35.159Z,14.38
2022-11-02T07:30:52.854Z,14.40
2022-11-02T07:33:26.808Z,14.42
2022-11-02T07:36:00.299Z,14.48
2022-11-02T07:41:28.814Z,14.56
2022-11-02T07:47:03.639Z,14.64
2022-11-02T07:49:38.709Z,14.73
2022-11-02T07:52:09.140Z,14.83
2022-11-02T07:54:49.913Z,14.89
2022-11-02T07:57:20.189Z,14.97
2022-11-02T07:59:49.787Z,15.02
2022-11-02T08:02:20.479Z,15.11
2022-11-02T08:04:48.708Z,15.14
2022-11-02T08:07:16.854Z,15.17
2022-11-02T08:09:45.207Z,15.24
2022-11-02T08:12:13.952Z,15.26
2022-11-02T08:14:43.438Z,15.28
2022-11-02T08:17:12.538Z,15.34
2022-11-02T08:19:41.024Z,15.39
2022-11-02T08:22:10.872Z,15.45
2022-11-02T08:24:39.542Z,15.49
2022-11-02T08:27:21.610Z,15.58
2022-11-02T08:29:53.130Z,15.63
2022-11-02T08:32:21.492Z,15.72
2022-11-02T08:34:50.098Z,15.78
2022-11-02T08:37:28.776Z,15.82
2022-11-02T08:40:02.672Z,15.89
2022-11-02T08:42:50.373Z,15.97
2022-11-02T08:45:20.166Z,16.01
2022-11-02T08:47:50.995Z,16.07
2022-11-02T08:50:19.752Z,16.13
2022-11-02T08:52:52.476Z,16.24
2022-11-02T08:55:33.303Z,16.34
2022-11-02T08:58:05.235Z,16.37
2022-11-02T09:00:37.204Z,16.41
2022-11-02T09:03:07.847Z,16.49
2022-11-02T09:05:39.039Z,16.56
2022-11-02T09:10:55.082Z,16.71
2022-11-02T09:13:25.733Z,16.78
2022-11-02T09:16:03.773Z,16.84
2022-11-02T09:18:56.436Z,16.93
2022-11-02T09:21:24.893Z,16.95
2022-11-02T09:23:56.289Z,16.99
2022-11-02T09:26:30.072Z,17.03
2022-11-02T09:28:58.855Z,17.07
2022-11-02T09:32:12.814Z,17.11
2022-11-02T09:44:08.472Z,17.45
2022-11-02T09:46:40.683Z,17.57
2022-11-02T09:57:25.180Z,17.90
2022-11-02T10:03:10.810Z,17.92
2022-11-02T10:14:06.464Z,18.08
2022-11-02T10:49:47.692Z,18.50
2022-11-02T10:53:40.203Z,18.59
2022-11-02T10:56:58.839Z,18.66
2022-11-02T11:43:04.456Z,19.00
2022-11-02T11:53:45.921Z,19.37
2022-11-02T11:57:05.735Z,19.47
2022-11-02T12:31:43.839Z,19.76
2022-11-02T12:35:27.834Z,19.70
2022-11-02T12:38:36.744Z,19.67
2022-11-02T13:10:53.379Z,19.59
2022-11-02T14:25:00.568Z,18.28
2022-11-02T14:31:25.913Z,18.26
2022-11-02T14:42:15.859Z,18.29
2022-11-02T14:45:30.907Z,18.32
2022-11-02T14:51:05.756Z,18.31
2022-11-02T14:53:41.946Z,18.31
2022-11-02T14:56:14.497Z,18.33
2022-11-02T14:58:57.116Z,18.29
2022-11-02T15:01:35.760Z,18.20
2022-11-02T15:04:08.818Z,18.12
2022-11-02T15:06:38.756Z,18.12
2022-11-02T15:09:07.479Z,18.08
2022-11-02T15:15:54.561Z,18.00
2022-11-02T15:18:55.430Z,17.98
2022-11-02T15:21:36.691Z,18.02
2022-11-02T15:24:38.271Z,18.01
2022-11-02T15:27:21.480Z,18.07
2022-11-02T15:29:55.598Z,18.05
2022-11-02T15:32:38.874Z,18.11
2022-11-02T15:35:39.743Z,18.14
2022-11-02T15:38:19.137Z,18.19
2022-11-02T15:41:00.982Z,18.21
2022-11-02T15:43:59.610Z,18.21
2022-11-02T15:46:41.121Z,18.24
2022-11-02T15:49:24.684Z,18.21
2022-11-02T15:52:00.511Z,18.25
2022-11-02T15:54:51.240Z,18.24
2022-11-02T15:57:32.822Z,18.25
2022-11-02T16:00:24.184Z,18.20
2022-11-02T16:02:58.103Z,18.25
2022-11-02T16:05:28.723Z,18.25
2022-11-02T16:08:10.803Z,18.25
2022-11-02T16:10:39.384Z,18.24
2022-11-02T16:13:17.324Z,18.27
2022-11-02T16:15:46.574Z,18.24
2022-11-02T16:18:29.263Z,18.23
2022-11-02T16:21:02.271Z,18.23
2022-11-02T16:23:34.650Z,18.23
2022-11-02T16:26:05.598Z,18.23
2022-11-02T16:28:37.434Z,18.20
2022-11-02T16:31:18.538Z,18.23
2022-11-02T16:33:50.592Z,18.28
2022-11-02T16:36:21.322Z,18.27
2022-11-02T16:39:00.027Z,18.25
2022-11-02T16:41:30.748Z,18.22
2022-11-02T16:44:02.357Z,18.26
2022-11-02T16:46:32.135Z,18.27
2022-11-02T16:49:18.216Z,18.20
2022-11-02T16:51:54.446Z,18.18
2022-11-02T16:54:32.467Z,18.06
2022-11-02T16:57:08.758Z,17.95
2022-11-02T16:59:50.796Z,17.82
2022-11-02T17:02:25.771Z,17.64
2022-11-02T17:05:02.520Z,17.51
2022-11-02T17:07:37.036Z,17.34
2022-11-02T17:10:08.124Z,17.25
2022-11-02T17:12:40.481Z,17.22
2022-11-02T17:15:17.563Z,17.21
2022-11-02T17:17:46.340Z,17.22
2022-11-02T17:20:20.378Z,17.19
2022-11-02T17:22:59.930Z,17.14
2022-11-02T17:25:31.037Z,17.08
2022-11-02T17:28:00.720Z,17.03
2022-11-02T17:30:48.832Z,16.91
2022-11-02T17:33:25.103Z,16.81
2022-11-02T17:35:54.863Z,16.72
2022-11-02T17:38:27.345Z,16.69
2022-11-02T17:40:57.399Z,16.67
2022-11-02T17:43:24.456Z,16.63
2022-11-02T17:45:57.075Z,16.60
2022-11-02T17:48:25.672Z,16.58
2022-11-02T17:50:55.960Z,16.53
2022-11-02T17:56:33.049Z,16.56
2022-11-02T17:59:14.567Z,16.61
2022-11-02T18:01:44.608Z,16.66
2022-11-02T18:04:16.341Z,16.71
2022-11-02T18:06:48.472Z,16.72
2022-11-02T18:09:19.542Z,16.77
2022-11-02T18:11:51.003Z,16.76
2022-11-02T18:14:19.504Z,16.71
2022-11-02T18:16:48.250Z,16.73
2022-11-02T18:19:22.191Z,16.77
2022-11-02T18:21:52.539Z,16.78
2022-11-02T18:24:21.021Z,16.81
2022-11-02T18:26:52.316Z,16.80
2022-11-02T18:29:23.180Z,16.84
2022-11-02T18:31:51.797Z,16.86
2022-11-02T18:34:25.102Z,16.90
2022-11-02T18:37:11.950Z,16.92
2022-11-02T18:54:02.352Z,17.03
2022-11-02T18:56:36.714Z,17.02
2022-11-02T19:01:53.682Z,16.99
2022-11-02T19:04:30.809Z,17.01
2022-11-02T19:07:30.373Z,16.99
2022-11-02T19:10:18.913Z,16.97
2022-11-02T19:15:53.788Z,16.96
2022-11-02T19:18:31.237Z,16.96
2022-11-02T19:21:10.167Z,16.97
2022-11-02T19:24:11.547Z,16.92
2022-11-02T19:29:53.719Z,16.97
2022-11-02T19:32:31.341Z,17.01
2022-11-02T19:35:09.205Z,17.02
2022-11-02T19:37:52.753Z,17.06
2022-11-02T19:40:21.801Z,17.09
2022-11-02T19:42:52.039Z,17.12
2022-11-02T19:45:20.384Z,17.11
2022-11-02T19:47:54.635Z,17.15
2022-11-02T19:50:23.301Z,17.19
2022-11-02T19:52:51.632Z,17.17
2022-11-02T19:55:36.990Z,17.24
2022-11-02T19:58:44.624Z,17.21
2022-11-02T20:01:16.596Z,17.28
2022-11-02T20:04:02.959Z,17.33
2022-11-02T20:06:40.036Z,17.33
2022-11-02T20:09:16.553Z,17.40
2022-11-02T20:14:37.096Z,17.40
2022-11-02T20:19:59.903Z,17.45
2022-11-02T20:22:37.372Z,17.42
2022-11-02T20:25:06.208Z,17.41
2022-11-02T20:27:43.255Z,17.42
2022-11-02T20:30:24.016Z,17.40
2022-11-02T20:32:52.400Z,17.41
2022-11-02T20:35:29.732Z,17.40
2022-11-02T20:37:59.514Z,17.34
2022-11-02T20:40:29.101Z,17.38
2022-11-02T20:43:02.663Z,17.36
2022-11-02T20:45:38.560Z,17.36
2022-11-02T20:48:09.524Z,17.32
2022-11-02T20:50:51.385Z,17.32
2022-11-02T20:53:19.749Z,17.32
2022-11-02T20:55:48.007Z,17.32
2022-11-02T20:58:21.334Z,17.30
2022-11-02T21:01:00.019Z,17.29
2022-11-02T21:03:28.314Z,17.27
2022-11-02T21:06:13.204Z,17.26
2022-11-02T21:27:25.125Z,17.04
2022-11-02T22:01:52.465Z,16.77
